Aviation Digital Data Service (ADDS)

Output produced by METARs form (2014 UTC 08 August 2020)
found at http://www.aviationweather.gov/metar/data/
 
Forecast for: KGRK (GRAY/FT HOOD , TX, US)
Text: TAF KGRK 081600Z 0816/0922 18009KT 9999 SCT025 QNH2997INS TX37/0821Z TN24/0912Z
Forecast period: 1600 UTC 08 August 2020 to 2200 UTC 09 August 2020
Forecast type: FROM: standard forecast or significant change
Winds: from the S (180 degrees) at 10 MPH (9 knots; 4.6 m/s)
Visibility: 6 or more miles (10+ km)
Ceiling: at least 12,000 feet AGL
Clouds: scattered clouds at 2500 feet AGL
Weather: no significant weather forecast for this period

Forecast for: KACT (WACO , TX, US)
Text: KACT 081720Z 0818/0918 16010G20KT P6SM FEW250
Forecast period: 1800 UTC 08 August 2020 to 0700 UTC 09 August 2020
Forecast type: FROM: standard forecast or significant change
Winds: from the SSE (160 degrees) at 12 MPH (10 knots; 5.1 m/s)
gusting to 23 MPH (20 knots; 10.3 m/s)
Visibility: 6 or more miles (10+ km)
Ceiling: at least 12,000 feet AGL
Clouds: few clouds at 25000 feet AGL
Weather: no significant weather forecast for this period
Text: FM090700 18009KT P6SM SKC
Forecast period: 0700 to 1800 UTC 09 August 2020
Forecast type: FROM: standard forecast or significant change
Winds: from the S (180 degrees) at 10 MPH (9 knots; 4.6 m/s)
Visibility: 6 or more miles (10+ km)
Clouds: clear skies
Weather: no significant weather forecast for this period